Time;durP1;ratioP1;P1;durP2;ratioP2;P2;SDS_P1;SDS_P2;PMS_P1;PMS_P2;Temp;Humidity;BMP_temperature;BMP_pressure;BME280_temperature;BME280_humidity;BME280_pressure;Samples;Min_cycle;Max_cycle;Signal;HPM_P1;HPM_P2
2021/07/24 00:00:18;;;;;;;7.94;5.15;;;;;;;;;;362882;146;857416;-59
2021/07/24 00:01:20;;;;;;;16.61;5.37;;;;;;;;;;364677;147;857043;-59
2021/07/24 00:02:21;;;;;;;5.81;4.40;;;;;;;;;;366089;147;857292;-59
2021/07/24 00:03:23;;;;;;;6.30;4.58;;;;;;;;;;363507;147;864751;-60
2021/07/24 00:04:25;;;;;;;8.22;4.63;;;;;;;;;;360260;146;858824;-59
2021/07/24 00:05:27;;;;;;;6.16;4.40;;;;;;;;;;360216;147;857287;-60
2021/07/24 00:06:30;;;;;;;6.78;5.18;;;;;;;;;;363242;147;858151;-59
2021/07/24 00:07:31;;;;;;;8.51;4.74;;;;;;;;;;362524;147;858917;-60
2021/07/24 00:08:33;;;;;;;6.49;4.60;;;;;;;;;;359317;150;857239;-58
2021/07/24 00:09:34;;;;;;;7.93;4.93;;;;;;;;;;360384;147;857126;-60
2021/07/24 00:10:37;;;;;;;6.66;4.62;;;;;;;;;;360727;147;857132;-57
2021/07/24 00:11:38;;;;;;;16.30;5.14;;;;;;;;;;360606;147;857262;-59
2021/07/24 00:12:40;;;;;;;5.97;4.63;;;;;;;;;;363479;147;857231;-59
2021/07/24 00:13:41;;;;;;;7.64;5.01;;;;;;;;;;362220;147;857484;-59
2021/07/24 00:14:43;;;;;;;6.26;4.87;;;;;;;;;;362513;146;858743;-58
2021/07/24 00:15:45;;;;;;;8.52;4.74;;;;;;;;;;362441;147;859828;-59
2021/07/24 00:16:48;;;;;;;9.48;4.82;;;;;;;;;;360313;148;859108;-59
2021/07/24 00:17:49;;;;;;;6.18;4.58;;;;;;;;;;360885;146;858884;-59
2021/07/24 00:18:51;;;;;;;7.18;4.48;;;;;;;;;;359333;147;858485;-60
2021/07/24 00:19:52;;;;;;;7.88;4.89;;;;;;;;;;359576;148;857329;-59
2021/07/24 00:20:54;;;;;;;8.03;4.52;;;;;;;;;;361875;146;859016;-59
2021/07/24 00:21:56;;;;;;;8.33;4.74;;;;;;;;;;359814;147;858756;-61
2021/07/24 00:22:58;;;;;;;7.86;5.13;;;;;;;;;;359269;150;858844;-61
2021/07/24 00:23:59;;;;;;;10.85;4.54;;;;;;;;;;360646;147;858440;-61
2021/07/24 00:25:03;;;;;;;13.34;4.91;;;;;;;;;;360458;147;857765;-59
2021/07/24 00:26:05;;;;;;;12.09;5.34;;;;;;;;;;362885;147;857308;-59
2021/07/24 00:27:08;;;;;;;8.61;4.75;;;;;;;;;;360282;147;858550;-59
2021/07/24 00:28:09;;;;;;;12.91;5.29;;;;;;;;;;362866;147;857108;-59
2021/07/24 00:29:11;;;;;;;8.64;5.04;;;;;;;;;;361054;146;857185;-60
2021/07/24 00:30:13;;;;;;;7.75;5.02;;;;;;;;;;359593;148;857378;-59
2021/07/24 00:31:15;;;;;;;8.39;4.79;;;;;;;;;;361143;146;857280;-59
2021/07/24 00:32:16;;;;;;;8.86;5.03;;;;;;;;;;359822;147;867192;-59
2021/07/24 00:33:18;;;;;;;7.24;4.68;;;;;;;;;;359290;150;865750;-59
2021/07/24 00:34:20;;;;;;;6.21;4.60;;;;;;;;;;360021;147;857425;-59
2021/07/24 00:35:21;;;;;;;6.36;4.49;;;;;;;;;;360775;146;864918;-59
2021/07/24 00:36:25;;;;;;;9.72;4.98;;;;;;;;;;361185;147;864758;-58
2021/07/24 00:37:26;;;;;;;9.21;4.79;;;;;;;;;;361732;147;857182;-60
2021/07/24 00:38:28;;;;;;;7.97;5.11;;;;;;;;;;359470;147;859165;-59
2021/07/24 00:39:29;;;;;;;9.21;4.84;;;;;;;;;;361709;147;858021;-59
2021/07/24 00:40:34;;;;;;;7.97;4.70;;;;;;;;;;361375;147;859682;-60
2021/07/24 00:41:40;;;;;;;7.59;5.20;;;;;;;;;;359833;146;865743;-59
2021/07/24 00:42:43;;;;;;;7.93;4.95;;;;;;;;;;360294;147;858724;-62
2021/07/24 00:43:45;;;;;;;7.57;4.51;;;;;;;;;;365648;147;857653;-60
2021/07/24 00:44:47;;;;;;;7.56;4.68;;;;;;;;;;363357;147;857200;-60
2021/07/24 00:45:49;;;;;;;10.58;5.13;;;;;;;;;;362318;147;864675;-59
2021/07/24 00:46:50;;;;;;;7.94;4.59;;;;;;;;;;364428;147;857255;-61
2021/07/24 00:47:55;;;;;;;7.37;4.89;;;;;;;;;;361272;147;864746;-60
2021/07/24 00:48:59;;;;;;;6.84;4.73;;;;;;;;;;361708;147;864803;-59
2021/07/24 00:50:00;;;;;;;9.24;4.33;;;;;;;;;;361552;146;858498;-60
2021/07/24 00:51:02;;;;;;;11.32;5.12;;;;;;;;;;359516;150;857271;-59
2021/07/24 00:52:04;;;;;;;6.35;4.51;;;;;;;;;;362283;147;866368;-59
2021/07/24 00:53:14;;;;;;;8.66;4.81;;;;;;;;;;361448;147;858459;-59
2021/07/24 00:54:15;;;;;;;8.52;4.74;;;;;;;;;;359771;147;858479;-59
2021/07/24 00:55:16;;;;;;;7.26;4.66;;;;;;;;;;359690;147;858208;-59
2021/07/24 00:56:18;;;;;;;8.27;4.93;;;;;;;;;;363316;146;864824;-59
2021/07/24 00:57:20;;;;;;;8.45;5.18;;;;;;;;;;365763;147;856457;-59
2021/07/24 00:58:23;;;;;;;10.79;5.09;;;;;;;;;;361815;147;858933;-59
2021/07/24 00:59:25;;;;;;;7.09;5.02;;;;;;;;;;361836;146;857309;-59
2021/07/24 01:00:27;;;;;;;8.39;5.19;;;;;;;;;;362595;146;857183;-59
2021/07/24 01:01:28;;;;;;;9.31;5.27;;;;;;;;;;361615;147;858001;-58
2021/07/24 01:02:30;;;;;;;8.21;4.82;;;;;;;;;;361149;147;859036;-59
2021/07/24 01:03:32;;;;;;;6.23;4.93;;;;;;;;;;361499;146;858945;-59
2021/07/24 01:04:33;;;;;;;6.35;4.88;;;;;;;;;;359343;150;858690;-59
2021/07/24 01:05:35;;;;;;;6.43;5.08;;;;;;;;;;359625;147;865551;-59
2021/07/24 01:06:38;;;;;;;8.91;5.05;;;;;;;;;;360588;147;864679;-59
2021/07/24 01:07:40;;;;;;;6.93;4.85;;;;;;;;;;364420;147;864959;-59
2021/07/24 01:08:41;;;;;;;9.47;4.93;;;;;;;;;;364351;147;857238;-59
2021/07/24 01:09:43;;;;;;;9.41;5.21;;;;;;;;;;362157;147;857332;-59
2021/07/24 01:10:47;;;;;;;7.66;4.87;;;;;;;;;;360467;146;864939;-59
2021/07/24 01:11:48;;;;;;;7.63;4.92;;;;;;;;;;361861;147;858516;-59
2021/07/24 01:12:50;;;;;;;10.96;5.84;;;;;;;;;;360007;147;857262;-59
2021/07/24 01:13:51;;;;;;;8.36;5.76;;;;;;;;;;360941;146;857395;-59
2021/07/24 01:14:53;;;;;;;8.81;5.44;;;;;;;;;;362791;148;857322;-59
2021/07/24 01:15:54;;;;;;;9.71;5.04;;;;;;;;;;364292;147;857185;-59
2021/07/24 01:16:58;;;;;;;8.90;4.98;;;;;;;;;;361886;147;857276;-59
2021/07/24 01:18:00;;;;;;;11.38;5.06;;;;;;;;;;360964;147;857505;-59
2021/07/24 01:19:01;;;;;;;11.96;5.26;;;;;;;;;;362102;147;857287;-58
2021/07/24 01:20:03;;;;;;;7.43;5.24;;;;;;;;;;362005;146;857188;-59
2021/07/24 01:21:06;;;;;;;7.47;4.93;;;;;;;;;;361575;146;864733;-59
2021/07/24 01:22:07;;;;;;;7.42;4.85;;;;;;;;;;363922;147;858252;-59
2021/07/24 01:23:09;;;;;;;13.73;5.41;;;;;;;;;;364211;147;864691;-59
2021/07/24 01:24:11;;;;;;;9.31;4.80;;;;;;;;;;361361;146;857273;-60
2021/07/24 01:25:12;;;;;;;5.98;4.45;;;;;;;;;;364196;146;857396;-59
2021/07/24 01:26:18;;;;;;;11.37;4.99;;;;;;;;;;365847;147;857360;-59
2021/07/24 01:27:19;;;;;;;5.94;4.96;;;;;;;;;;361878;147;862176;-59
2021/07/24 01:28:25;;;;;;;9.49;4.71;;;;;;;;;;362546;147;859533;-59
2021/07/24 01:29:27;;;;;;;7.25;4.64;;;;;;;;;;362807;148;861470;-58
2021/07/24 01:30:30;;;;;;;12.32;5.72;;;;;;;;;;361608;147;859008;-59
2021/07/24 01:31:32;;;;;;;6.67;4.36;;;;;;;;;;360919;147;857127;-59
2021/07/24 01:32:34;;;;;;;8.63;4.91;;;;;;;;;;359669;147;860545;-61
2021/07/24 01:33:35;;;;;;;7.73;5.36;;;;;;;;;;359145;147;866622;-59
2021/07/24 01:34:37;;;;;;;10.48;5.01;;;;;;;;;;361912;147;858821;-59
2021/07/24 01:35:40;;;;;;;7.99;4.82;;;;;;;;;;359337;146;857363;-59
2021/07/24 01:36:43;;;;;;;9.26;5.34;;;;;;;;;;359481;147;859043;-58
2021/07/24 01:37:44;;;;;;;6.50;5.18;;;;;;;;;;363740;147;857376;-59
2021/07/24 01:38:46;;;;;;;6.66;4.97;;;;;;;;;;361645;146;860352;-60
2021/07/24 01:39:47;;;;;;;7.34;4.53;;;;;;;;;;359622;147;857615;-59
2021/07/24 01:40:49;;;;;;;10.16;4.97;;;;;;;;;;360106;147;857595;-60
2021/07/24 01:41:51;;;;;;;10.51;5.08;;;;;;;;;;361430;146;865410;-60
2021/07/24 01:42:54;;;;;;;8.06;5.16;;;;;;;;;;359302;150;857231;-59
2021/07/24 01:43:56;;;;;;;6.51;4.92;;;;;;;;;;356861;147;857165;-59
2021/07/24 01:44:57;;;;;;;7.99;4.85;;;;;;;;;;356306;148;858053;-59
2021/07/24 01:45:59;;;;;;;6.56;4.81;;;;;;;;;;361406;147;864890;-58
2021/07/24 01:47:01;;;;;;;9.41;5.89;;;;;;;;;;362363;148;864823;-59
2021/07/24 01:48:08;;;;;;;7.59;5.27;;;;;;;;;;360377;147;866763;-58
2021/07/24 01:53:04;;;;;;;7.32;4.96;;;;;;;;;;356336;147;857187;-59
2021/07/24 01:54:06;;;;;;;7.66;4.69;;;;;;;;;;356729;151;857148;-59
2021/07/24 01:55:08;;;;;;;7.36;4.89;;;;;;;;;;350813;150;860966;-58
2021/07/24 01:56:11;;;;;;;8.59;4.71;;;;;;;;;;352402;150;859636;-60
2021/07/24 01:57:12;;;;;;;10.26;5.09;;;;;;;;;;356127;151;859183;-59
2021/07/24 01:58:17;;;;;;;10.49;5.52;;;;;;;;;;356417;147;859487;-59
2021/07/24 01:59:18;;;;;;;8.51;5.21;;;;;;;;;;355575;147;860647;-58
2021/07/24 02:00:22;;;;;;;7.51;4.39;;;;;;;;;;360172;148;865018;-59
2021/07/24 02:01:23;;;;;;;7.31;4.91;;;;;;;;;;362742;148;857647;-59
2021/07/24 02:02:25;;;;;;;7.54;4.54;;;;;;;;;;359888;147;865589;-59
2021/07/24 02:03:28;;;;;;;9.55;5.00;;;;;;;;;;357699;147;859052;-59
2021/07/24 02:04:30;;;;;;;10.65;5.24;;;;;;;;;;356071;148;866359;-60
2021/07/24 02:05:36;;;;;;;7.43;5.15;;;;;;;;;;348230;153;857283;-60
2021/07/24 02:06:40;;;;;;;8.52;5.13;;;;;;;;;;343900;153;866438;-59
2021/07/24 02:07:43;;;;;;;9.15;5.06;;;;;;;;;;345597;152;857327;-59
2021/07/24 02:08:45;;;;;;;8.38;4.93;;;;;;;;;;342963;153;857282;-58
2021/07/24 02:09:47;;;;;;;8.39;4.85;;;;;;;;;;344880;153;857141;-59
2021/07/24 02:10:51;;;;;;;7.86;4.82;;;;;;;;;;345523;154;864868;-61
2021/07/24 02:11:52;;;;;;;7.50;5.23;;;;;;;;;;340612;155;859452;-61
2021/07/24 02:12:54;;;;;;;7.46;4.91;;;;;;;;;;343785;152;857242;-59
2021/07/24 02:13:55;;;;;;;17.10;5.59;;;;;;;;;;345214;153;865268;-60
2021/07/24 02:14:59;;;;;;;8.44;5.52;;;;;;;;;;342847;157;857256;-59
2021/07/24 02:16:00;;;;;;;9.04;4.88;;;;;;;;;;343213;152;866621;-59
2021/07/24 02:17:02;;;;;;;8.29;5.09;;;;;;;;;;352352;150;857280;-59
2021/07/24 02:18:04;;;;;;;6.51;4.84;;;;;;;;;;352950;150;864944;-59
2021/07/24 02:19:06;;;;;;;9.09;5.07;;;;;;;;;;349460;150;866892;-59
2021/07/24 02:20:09;;;;;;;8.71;5.21;;;;;;;;;;351038;151;857225;-59
2021/07/24 02:21:11;;;;;;;7.17;4.85;;;;;;;;;;349681;150;857209;-60
2021/07/24 02:22:12;;;;;;;8.91;4.96;;;;;;;;;;350334;151;866132;-58
2021/07/24 02:23:14;;;;;;;8.49;5.23;;;;;;;;;;352382;150;858323;-60
2021/07/24 02:24:16;;;;;;;10.67;5.37;;;;;;;;;;348556;150;857354;-59
2021/07/24 02:25:17;;;;;;;10.17;5.33;;;;;;;;;;347819;154;857423;-60
2021/07/24 02:26:19;;;;;;;7.52;4.95;;;;;;;;;;349197;150;857385;-59
2021/07/24 02:27:21;;;;;;;7.39;4.82;;;;;;;;;;349667;151;857278;-59
2021/07/24 02:28:23;;;;;;;8.59;4.74;;;;;;;;;;343030;156;858993;-59
2021/07/24 02:29:24;;;;;;;10.24;5.07;;;;;;;;;;345185;153;858574;-58
2021/07/24 02:30:28;;;;;;;8.40;5.47;;;;;;;;;;351342;150;864735;-59
2021/07/24 02:31:29;;;;;;;9.47;5.34;;;;;;;;;;348001;152;857220;-59
2021/07/24 02:32:31;;;;;;;9.12;5.36;;;;;;;;;;340789;156;859106;-61
2021/07/24 02:33:32;;;;;;;8.14;4.92;;;;;;;;;;343823;153;857198;-59
2021/07/24 02:34:34;;;;;;;6.95;4.78;;;;;;;;;;347335;151;857230;-58
2021/07/24 02:35:35;;;;;;;10.39;5.03;;;;;;;;;;351182;151;857160;-59
2021/07/24 02:36:39;;;;;;;8.56;4.72;;;;;;;;;;346969;152;859027;-60
2021/07/24 02:37:40;;;;;;;7.04;4.56;;;;;;;;;;345347;153;857283;-59
2021/07/24 02:38:42;;;;;;;8.58;5.16;;;;;;;;;;345462;153;859454;-59
2021/07/24 02:39:43;;;;;;;9.77;5.03;;;;;;;;;;344338;154;858162;-59
2021/07/24 02:40:47;;;;;;;8.14;5.39;;;;;;;;;;345057;153;860286;-60
2021/07/24 02:41:48;;;;;;;6.11;5.34;;;;;;;;;;345749;153;857242;-59
2021/07/24 02:42:50;;;;;;;12.80;4.46;;;;;;;;;;343546;154;858946;-57
2021/07/24 02:43:51;;;;;;;6.79;4.68;;;;;;;;;;342327;153;857291;-59
2021/07/24 02:44:53;;;;;;;6.09;4.76;;;;;;;;;;346819;152;865050;-59
2021/07/24 02:45:55;;;;;;;8.59;4.86;;;;;;;;;;346455;153;857164;-59
2021/07/24 02:46:57;;;;;;;7.47;5.07;;;;;;;;;;350752;153;857273;-59
2021/07/24 02:47:58;;;;;;;6.59;5.04;;;;;;;;;;348694;151;857213;-59
2021/07/24 02:49:00;;;;;;;6.31;4.71;;;;;;;;;;347405;151;857252;-58
2021/07/24 02:50:02;;;;;;;10.31;5.69;;;;;;;;;;347429;152;857228;-58
2021/07/24 02:51:03;;;;;;;8.25;4.72;;;;;;;;;;349886;151;866730;-59
2021/07/24 02:52:05;;;;;;;6.89;4.96;;;;;;;;;;346632;151;865840;-58
2021/07/24 02:53:07;;;;;;;7.45;4.86;;;;;;;;;;345969;153;860283;-59
2021/07/24 02:54:08;;;;;;;8.87;5.20;;;;;;;;;;345432;151;857185;-59
2021/07/24 02:55:10;;;;;;;10.09;4.86;;;;;;;;;;343248;154;859080;-58
2021/07/24 02:56:13;;;;;;;8.81;5.07;;;;;;;;;;348356;150;857347;-59
2021/07/24 02:57:15;;;;;;;8.37;4.79;;;;;;;;;;349584;152;860907;-58
2021/07/24 02:58:16;;;;;;;9.19;5.09;;;;;;;;;;349827;150;864843;-59
2021/07/24 02:59:18;;;;;;;7.05;5.09;;;;;;;;;;350978;150;857363;-58
2021/07/24 03:00:20;;;;;;;8.52;4.84;;;;;;;;;;354633;150;857294;-59
2021/07/24 03:01:21;;;;;;;8.28;5.38;;;;;;;;;;351665;151;864944;-59
2021/07/24 03:02:23;;;;;;;8.68;5.01;;;;;;;;;;349605;150;858854;-59
2021/07/24 03:03:24;;;;;;;5.96;4.84;;;;;;;;;;351681;149;857267;-58
2021/07/24 03:04:26;;;;;;;7.71;5.19;;;;;;;;;;350609;151;859585;-59
2021/07/24 03:05:27;;;;;;;9.96;5.73;;;;;;;;;;350772;151;857172;-59
2021/07/24 03:06:31;;;;;;;9.69;5.12;;;;;;;;;;350584;149;857241;-60
2021/07/24 03:07:32;;;;;;;10.14;5.34;;;;;;;;;;347162;153;857942;-59
2021/07/24 03:08:34;;;;;;;9.59;4.21;;;;;;;;;;348589;151;857403;-58
2021/07/24 03:09:36;;;;;;;6.64;4.99;;;;;;;;;;347428;153;857964;-59
2021/07/24 03:10:38;;;;;;;9.75;5.49;;;;;;;;;;350977;153;858370;-59
2021/07/24 03:11:40;;;;;;;7.51;4.96;;;;;;;;;;349959;151;866083;-59
2021/07/24 03:12:41;;;;;;;9.04;4.35;;;;;;;;;;347643;151;857282;-60
2021/07/24 03:13:43;;;;;;;8.04;5.29;;;;;;;;;;348241;151;857249;-59
2021/07/24 03:14:44;;;;;;;10.31;5.13;;;;;;;;;;349974;153;857097;-60
2021/07/24 03:15:46;;;;;;;7.39;5.11;;;;;;;;;;346307;151;857255;-62
2021/07/24 03:16:48;;;;;;;9.22;5.42;;;;;;;;;;347234;151;865107;-61
2021/07/24 03:17:49;;;;;;;6.89;5.08;;;;;;;;;;349444;153;865007;-58
2021/07/24 03:18:51;;;;;;;8.04;5.17;;;;;;;;;;350512;151;857380;-62
2021/07/24 03:19:53;;;;;;;8.29;5.26;;;;;;;;;;347295;151;857245;-61
2021/07/24 03:20:56;;;;;;;7.11;5.02;;;;;;;;;;347267;153;857283;-60
2021/07/24 03:21:57;;;;;;;12.96;5.56;;;;;;;;;;350796;153;857239;-61
2021/07/24 03:23:00;;;;;;;7.54;5.12;;;;;;;;;;347886;151;864965;-60
2021/07/24 03:24:02;;;;;;;6.51;5.02;;;;;;;;;;346602;151;858829;-61
2021/07/24 03:25:04;;;;;;;9.17;5.51;;;;;;;;;;345452;156;857261;-63
2021/07/24 03:26:08;;;;;;;7.69;5.29;;;;;;;;;;347685;151;858001;-62
2021/07/24 03:27:09;;;;;;;9.17;5.27;;;;;;;;;;346989;151;865820;-60
2021/07/24 03:28:11;;;;;;;8.41;5.42;;;;;;;;;;345485;153;864904;-62
2021/07/24 03:29:12;;;;;;;7.47;5.04;;;;;;;;;;346283;151;857551;-62
2021/07/24 03:30:16;;;;;;;9.00;5.39;;;;;;;;;;348106;151;857825;-64
2021/07/24 03:31:17;;;;;;;6.96;5.49;;;;;;;;;;347424;153;857619;-60
2021/07/24 03:32:19;;;;;;;6.83;5.30;;;;;;;;;;350129;153;857417;-59
2021/07/24 03:33:20;;;;;;;8.89;5.87;;;;;;;;;;348778;151;857405;-61
2021/07/24 03:34:22;;;;;;;9.13;5.73;;;;;;;;;;346359;151;866814;-65
2021/07/24 03:35:24;;;;;;;11.55;5.84;;;;;;;;;;345504;153;857320;-60
2021/07/24 03:36:26;;;;;;;7.18;5.63;;;;;;;;;;347327;151;858859;-62
2021/07/24 03:37:27;;;;;;;10.66;5.64;;;;;;;;;;347473;152;857909;-61
2021/07/24 03:38:29;;;;;;;11.64;7.94;;;;;;;;;;346718;153;859660;-65
2021/07/24 03:39:31;;;;;;;15.07;10.21;;;;;;;;;;349593;151;859351;-61
2021/07/24 03:40:34;;;;;;;9.29;6.48;;;;;;;;;;346807;151;860201;-61
2021/07/24 03:41:35;;;;;;;10.27;6.15;;;;;;;;;;346595;152;865768;-61
2021/07/24 03:42:37;;;;;;;9.96;5.68;;;;;;;;;;348240;154;857092;-63
2021/07/24 03:43:41;;;;;;;9.09;5.86;;;;;;;;;;345562;151;857866;-62
2021/07/24 03:44:42;;;;;;;10.20;5.95;;;;;;;;;;347860;151;857259;-61
2021/07/24 03:45:44;;;;;;;10.34;5.84;;;;;;;;;;361285;147;858911;-60
2021/07/24 03:46:46;;;;;;;11.73;5.71;;;;;;;;;;359863;147;857378;-64
2021/07/24 03:47:47;;;;;;;8.82;5.71;;;;;;;;;;361590;146;857251;-62
2021/07/24 03:48:49;;;;;;;9.04;6.01;;;;;;;;;;360461;147;857236;-63
2021/07/24 03:49:50;;;;;;;8.41;5.79;;;;;;;;;;359128;150;859015;-65
2021/07/24 03:50:53;;;;;;;7.97;5.70;;;;;;;;;;361785;147;858258;-62
2021/07/24 03:51:54;;;;;;;9.91;5.37;;;;;;;;;;362378;146;858949;-61
2021/07/24 03:52:56;;;;;;;13.09;5.89;;;;;;;;;;360587;147;860892;-60
2021/07/24 03:53:57;;;;;;;8.78;5.89;;;;;;;;;;360428;147;859393;-62
2021/07/24 03:54:59;;;;;;;14.66;5.95;;;;;;;;;;362686;146;860546;-64
2021/07/24 03:56:00;;;;;;;8.51;5.54;;;;;;;;;;361927;149;859503;-69
2021/07/24 03:57:02;;;;;;;8.95;6.19;;;;;;;;;;362171;147;857328;-62
2021/07/24 03:58:04;;;;;;;10.14;5.83;;;;;;;;;;362095;146;857763;-64
2021/07/24 03:59:05;;;;;;;10.94;5.51;;;;;;;;;;361097;147;865880;-62
2021/07/24 04:00:08;;;;;;;12.14;5.25;;;;;;;;;;361735;147;859517;-62
2021/07/24 04:01:10;;;;;;;7.59;5.23;;;;;;;;;;361364;147;857308;-63
2021/07/24 04:02:18;;;;;;;9.66;5.63;;;;;;;;;;363086;147;856955;-61
2021/07/24 04:03:18;;;;;;;10.73;5.70;;;;;;;;;;360146;147;856353;-62
2021/07/24 04:04:19;;;;;;;7.33;5.50;;;;;;;;;;360489;147;856341;-63
2021/07/24 04:05:21;;;;;;;10.05;6.29;;;;;;;;;;361688;146;856364;-60
2021/07/24 04:06:26;;;;;;;10.69;6.27;;;;;;;;;;364959;147;856340;-62
2021/07/24 04:07:28;;;;;;;9.11;5.61;;;;;;;;;;359817;147;856368;-64
2021/07/24 04:08:32;;;;;;;6.49;5.10;;;;;;;;;;361537;147;856188;-63
2021/07/24 04:09:34;;;;;;;11.51;5.79;;;;;;;;;;364139;147;856152;-62
2021/07/24 04:10:37;;;;;;;7.88;6.09;;;;;;;;;;364768;147;857340;-62
2021/07/24 04:11:38;;;;;;;11.89;5.42;;;;;;;;;;362743;147;856234;-61
2021/07/24 04:12:41;;;;;;;11.34;5.64;;;;;;;;;;363629;146;856746;-61
2021/07/24 04:13:42;;;;;;;7.37;5.69;;;;;;;;;;365384;147;856396;-60
2021/07/24 04:14:45;;;;;;;8.70;5.54;;;;;;;;;;362708;147;856107;-59
2021/07/24 04:15:46;;;;;;;9.49;5.87;;;;;;;;;;362006;146;856760;-60
2021/07/24 04:18:39;;;;;;;9.39;5.40;;;;;;;18.46;65.71;99828.55;371330;142;878851;-65
2021/07/24 04:19:41;;;;;;;8.43;5.35;;;;;;;18.44;65.22;99830.38;361533;145;858547;-64
2021/07/24 04:20:43;;;;;;;11.28;5.27;;;;;;;18.49;64.71;99825.80;361070;144;864955;-64
2021/07/24 04:21:45;;;;;;;10.74;5.83;;;;;;;18.53;64.53;99832.61;360605;146;857456;-64
2021/07/24 04:22:46;;;;;;;9.84;5.66;;;;;;;18.57;64.55;99825.48;360996;145;864814;-64
2021/07/24 04:23:48;;;;;;;13.78;5.56;;;;;;;18.64;64.64;99832.16;362930;146;865812;-64
2021/07/24 04:24:50;;;;;;;9.03;5.51;;;;;;;18.66;64.60;99828.56;364305;144;865948;-65
2021/07/24 04:25:52;;;;;;;8.32;5.14;;;;;;;18.71;64.41;99827.52;363099;144;865665;-64
2021/07/24 04:26:54;;;;;;;9.05;5.45;;;;;;;18.70;64.16;99818.78;364833;145;865681;-65
2021/07/24 04:27:56;;;;;;;10.88;5.32;;;;;;;18.75;64.06;99823.84;361482;147;857285;-65
2021/07/24 04:28:59;;;;;;;9.44;5.41;;;;;;;18.79;63.79;99820.99;362605;146;866754;-64
2021/07/24 04:30:01;;;;;;;6.49;5.09;;;;;;;18.84;63.65;99816.39;360040;145;865060;-64
2021/07/24 04:31:03;;;;;;;16.05;5.69;;;;;;;18.93;63.41;99822.15;363321;146;857896;-64
2021/07/24 04:32:05;;;;;;;10.42;5.46;;;;;;;18.98;62.97;99821.07;362440;144;858259;-65
2021/07/24 04:33:07;;;;;;;9.33;5.48;;;;;;;18.98;62.97;99821.07;361404;145;857347;-65
2021/07/24 04:34:09;;;;;;;11.22;5.26;;;;;;;19.03;60.01;99820.84;364430;144;857225;-64
2021/07/24 04:35:11;;;;;;;9.73;5.25;;;;;;;19.09;60.03;99823.22;361754;146;864860;-65
2021/07/24 04:36:13;;;;;;;9.87;5.79;;;;;;;19.11;59.59;99824.00;363335;145;864957;-65
2021/07/24 04:37:15;;;;;;;11.81;5.45;;;;;;;19.16;61.57;99821.16;363342;145;857308;-65
2021/07/24 04:38:17;;;;;;;10.84;5.58;;;;;;;19.21;59.37;99818.33;359186;149;858305;-65
2021/07/24 04:39:18;;;;;;;7.58;5.89;;;;;;;19.24;58.56;99815.56;358927;148;865299;-65
2021/07/24 04:40:21;;;;;;;10.97;5.57;;;;;;;19.17;56.72;99820.23;356881;147;857787;-65
2021/07/24 04:41:23;;;;;;;11.06;5.88;;;;;;;19.15;58.44;99823.86;359819;148;857373;-64
2021/07/24 04:42:24;;;;;;;7.37;5.21;;;;;;;19.18;61.09;99821.94;362038;147;865383;-65
2021/07/24 04:43:26;;;;;;;7.67;5.43;;;;;;;19.24;61.24;99823.44;357101;148;864683;-65
2021/07/24 04:44:28;;;;;;;9.82;5.44;;;;;;;19.26;57.15;99818.97;358845;147;865668;-64
2021/07/24 04:45:29;;;;;;;9.44;5.24;;;;;;;19.32;57.18;99820.44;356441;148;866227;-64
2021/07/24 04:46:32;;;;;;;10.84;5.45;;;;;;;19.33;56.14;99819.52;357192;148;866447;-64
2021/07/24 04:47:34;;;;;;;11.91;5.62;;;;;;;19.22;56.74;99780.67;359360;147;858978;-65
2021/07/24 04:48:35;;;;;;;11.44;5.44;;;;;;;19.22;56.74;99780.67;357409;149;859004;-65
2021/07/24 04:49:44;;;;;;;7.81;5.06;;;;;;;19.29;56.85;99828.46;359851;148;865897;-65
2021/07/24 04:50:50;;;;;;;10.21;5.31;;;;;;;19.30;56.34;99823.16;356864;147;867082;-64
2021/07/24 04:51:52;;;;;;;10.31;5.53;;;;;;;19.36;56.37;99822.00;358365;147;864853;-65
2021/07/24 04:52:54;;;;;;;9.71;5.34;;;;;;;19.41;56.14;99822.64;355008;149;865065;-64
2021/07/24 04:53:55;;;;;;;9.80;5.33;;;;;;;19.46;56.43;99820.65;356976;148;866681;-65
2021/07/24 04:54:59;;;;;;;8.40;5.24;;;;;;;19.43;55.94;99823.42;358337;147;857293;-64
2021/07/24 04:56:01;;;;;;;10.58;5.02;;;;;;;;;;357369;148;864768;-65
2021/07/24 04:57:03;;;;;;;10.97;5.61;;;;;;;;;;356878;149;865679;-65
2021/07/24 04:58:06;;;;;;;8.92;5.19;;;;;;;;;;356603;147;857342;-65
2021/07/24 04:59:07;;;;;;;9.10;5.95;;;;;;;;;;359459;149;866672;-65
2021/07/24 05:00:13;;;;;;;10.97;5.77;;;;;;;;;;357672;148;864951;-64
2021/07/24 05:01:14;;;;;;;7.83;5.07;;;;;;;;;;358347;147;857260;-64
2021/07/24 05:02:17;;;;;;;7.34;4.76;;;;;;;;;;357515;147;857984;-65
2021/07/24 05:03:19;;;;;;;8.09;5.15;;;;;;;;;;357848;150;866825;-65
2021/07/24 05:04:20;;;;;;;7.95;5.05;;;;;;;;;;356720;148;856505;-64
2021/07/24 05:05:22;;;;;;;8.32;4.95;;;;;;;;;;358217;147;857795;-65
2021/07/24 05:06:25;;;;;;;6.97;5.03;;;;;;;;;;359058;149;866957;-64
2021/07/24 05:07:29;;;;;;;8.01;5.41;;;;;;;;;;358942;148;865875;-65
2021/07/24 05:08:31;;;;;;;10.49;5.00;;;;;;;;;;357729;147;858146;-65
2021/07/24 05:09:33;;;;;;;9.54;4.99;;;;;;;;;;358587;149;857569;-65
2021/07/24 05:10:35;;;;;;;8.09;5.58;;;;;;;;;;358340;148;858647;-65
2021/07/24 05:11:37;;;;;;;7.14;5.07;;;;;;;;;;356894;147;864814;-65
2021/07/24 05:12:40;;;;;;;9.18;4.84;;;;;;;;;;355082;147;857384;-65
2021/07/24 05:13:41;;;;;;;13.93;5.41;;;;;;;;;;360800;148;857259;-64
2021/07/24 05:14:43;;;;;;;7.85;5.06;;;;;;;;;;356561;148;858855;-65
2021/07/24 05:15:45;;;;;;;9.12;5.19;;;;;;;;;;357375;147;857296;-65
2021/07/24 05:16:46;;;;;;;8.11;4.83;;;;;;;;;;359170;147;859043;-64
2021/07/24 05:17:48;;;;;;;7.89;4.92;;;;;;;;;;358736;148;865690;-64
2021/07/24 05:18:49;;;;;;;6.26;4.61;;;;;;;;;;355082;149;857855;-65
2021/07/24 05:19:51;;;;;;;7.86;4.99;;;;;;;;;;358662;148;858634;-65
2021/07/24 05:20:54;;;;;;;11.59;4.81;;;;;;;;;;356938;148;859470;-64
2021/07/24 05:21:56;;;;;;;8.21;4.75;;;;;;;;;;357290;148;857265;-65
2021/07/24 05:22:57;;;;;;;7.54;5.05;;;;;;;;;;357207;149;858734;-64
2021/07/24 05:23:59;;;;;;;7.29;5.41;;;;;;;;;;356027;150;858811;-65
2021/07/24 05:25:00;;;;;;;7.90;5.21;;;;;;;;;;357406;147;858980;-64
2021/07/24 05:26:02;;;;;;;7.81;5.25;;;;;;;;;;356582;149;857274;-64
2021/07/24 05:27:04;;;;;;;9.71;5.16;;;;;;;;;;356504;148;864695;-64
2021/07/24 05:28:05;;;;;;;8.24;4.91;;;;;;;;;;355663;149;864943;-64
2021/07/24 05:29:07;;;;;;;10.20;5.01;;;;;;;;;;358383;147;864715;-64
2021/07/24 05:30:11;;;;;;;6.28;5.21;;;;;;;;;;356678;148;857261;-65
2021/07/24 05:31:16;;;;;;;8.84;5.21;;;;;;;;;;357576;148;857690;-64
2021/07/24 05:32:18;;;;;;;9.07;4.86;;;;;;;;;;357031;148;857381;-65
2021/07/24 05:33:19;;;;;;;13.47;4.72;;;;;;;;;;356005;148;857842;-64
2021/07/24 05:34:21;;;;;;;10.77;5.09;;;;;;;;;;357713;148;858758;-64
2021/07/24 05:35:22;;;;;;;7.71;4.89;;;;;;;;;;357302;148;858877;-64
2021/07/24 05:36:26;;;;;;;6.61;4.79;;;;;;;;;;355289;148;859594;-64
2021/07/24 05:37:27;;;;;;;11.92;5.11;;;;;;;;;;351130;151;857299;-64
2021/07/24 05:38:29;;;;;;;6.82;4.78;;;;;;;;;;342617;155;859497;-64
2021/07/24 05:39:31;;;;;;;8.86;4.86;;;;;;;;;;346535;152;858604;-65
2021/07/24 05:40:34;;;;;;;7.87;5.01;;;;;;;;;;350114;151;857787;-65
2021/07/24 05:41:35;;;;;;;6.24;4.91;;;;;;;;;;348338;151;859937;-64
2021/07/24 05:42:37;;;;;;;6.38;4.79;;;;;;;;;;346921;151;857268;-64
2021/07/24 05:43:39;;;;;;;9.41;5.54;;;;;;;;;;346127;153;857269;-64
2021/07/24 05:44:40;;;;;;;7.56;4.84;;;;;;;;;;350372;151;857447;-64
2021/07/24 05:45:42;;;;;;;7.06;5.22;;;;;;;;;;347631;151;857420;-64
2021/07/24 05:46:45;;;;;;;14.00;5.01;;;;;;;;;;349253;152;857326;-64
2021/07/24 05:47:46;;;;;;;8.15;4.69;;;;;;;;;;348470;152;857305;-64
2021/07/24 05:48:48;;;;;;;6.93;4.62;;;;;;;;;;349439;152;857237;-64
2021/07/24 05:49:50;;;;;;;14.66;5.36;;;;;;;;;;349726;151;858949;-63
2021/07/24 05:50:54;;;;;;;8.66;5.09;;;;;;;;;;344525;154;858298;-64
2021/07/24 05:51:56;;;;;;;7.43;5.06;;;;;;;;;;346835;153;857317;-65
2021/07/24 05:52:57;;;;;;;8.79;4.42;;;;;;;;;;346649;154;857212;-64
2021/07/24 05:53:59;;;;;;;6.76;4.58;;;;;;;;;;345094;154;857368;-64
2021/07/24 05:55:00;;;;;;;9.54;5.08;;;;;;;;;;346972;155;857140;-65
2021/07/24 05:56:02;;;;;;;12.00;5.32;;;;;;;;;;346633;152;858755;-64
2021/07/24 05:57:04;;;;;;;9.19;5.07;;;;;;;;;;344508;154;865616;-64
2021/07/24 05:58:09;;;;;;;7.95;4.83;;;;;;;;;;346999;151;864188;-64
2021/07/24 05:59:11;;;;;;;12.18;4.99;;;;;;;;;;344583;154;860466;-64
2021/07/24 06:00:15;;;;;;;9.28;4.76;;;;;;;;;;346354;153;857536;-64
2021/07/24 06:01:16;;;;;;;7.74;5.03;;;;;;;;;;349415;153;859117;-64